Glinton, United Kingdom
Current Conditions -  °F | °C
As of 1:50 AM on Friday 21 Nov 2014 (Local Time) from EGXT Reporting Station
Haze Haze  
Wind Chill:   Ceiling: 2900
Heat Index:   Visibility: 2.8mi
Dew Point:   Wind: 5mph
Humidity: 100%   Direction: 70°ENE
Pressure: 30.21"   Gusts: NA
Location:  52.64°N, 0.3°W
Report Text: EGXT 210150Z AUTO 07004KT 4600 BR OVC029/// 06/06 Q1023
Loading
Personal Weather Stations






























Interactive Weather Map New forecast layout! Learn more

10-Day Weather Forecast

Advertisements
Track Severe Weather on mobile